createdAt,value
2023-10-15T00:00:26.785Z,100823.47
2023-10-15T00:02:54.128Z,100826.81
2023-10-15T00:05:22.378Z,100832.13
2023-10-15T00:07:50.910Z,100833.81
2023-10-15T00:10:20.220Z,100835.75
2023-10-15T00:12:49.772Z,100836.31
2023-10-15T00:15:20.284Z,100843.84
2023-10-15T00:17:54.519Z,100842.44
2023-10-15T00:20:22.681Z,100844.41
2023-10-15T00:22:50.987Z,100839.09
2023-10-15T00:25:21.510Z,100839.66
2023-10-15T00:27:53.841Z,100842.97
2023-10-15T00:30:20.879Z,100836.56
2023-10-15T00:32:48.740Z,100840.75
2023-10-15T00:35:20.959Z,100829.31
2023-10-15T00:37:58.071Z,100832.09
2023-10-15T00:40:26.365Z,100839.66
2023-10-15T00:42:53.756Z,100830.69
2023-10-15T00:45:21.593Z,100825.66
2023-10-15T00:48:01.610Z,100823.97
2023-10-15T00:50:39.649Z,100827.06
2023-10-15T00:53:22.734Z,100843.53
2023-10-15T00:56:12.222Z,100834.56
2023-10-15T00:58:38.727Z,100844.34
2023-10-15T01:01:17.876Z,100852.97
2023-10-15T01:03:51.872Z,100858.88
2023-10-15T01:06:27.224Z,100854.94
2023-10-15T01:08:53.768Z,100843.47
2023-10-15T01:11:21.250Z,100847.69
2023-10-15T01:13:47.706Z,100850.47
2023-10-15T01:16:18.844Z,100843.19
2023-10-15T01:18:56.919Z,100835.09
2023-10-15T01:21:30.635Z,100834.53
2023-10-15T01:24:07.113Z,100841.53
2023-10-15T01:26:37.024Z,100837.31
2023-10-15T01:29:07.027Z,100838.44
2023-10-15T01:31:41.363Z,100835.63
2023-10-15T01:34:10.620Z,100842.88
2023-10-15T01:36:39.754Z,100845.41
2023-10-15T01:39:13.876Z,100844.84
2023-10-15T01:41:40.989Z,100848.19
2023-10-15T01:44:08.296Z,100852.09
2023-10-15T01:47:00.723Z,100861.03
2023-10-15T01:49:33.311Z,100852.66
2023-10-15T01:52:25.283Z,100862.13
2023-10-15T01:54:51.832Z,100865.19
2023-10-15T01:57:18.592Z,100862.66
2023-10-15T01:59:48.063Z,100862.94
2023-10-15T02:02:16.744Z,100868.78
2023-10-15T02:04:45.744Z,100871.03
2023-10-15T02:07:20.823Z,100869.63
2023-10-15T02:09:47.651Z,100873.25
2023-10-15T02:12:15.550Z,100862.63
2023-10-15T02:14:43.790Z,100863.19
2023-10-15T02:17:14.696Z,100863.47
2023-10-15T02:19:42.224Z,100861.53
2023-10-15T02:22:13.841Z,100865.72
2023-10-15T02:24:48.152Z,100867.94
2023-10-15T02:27:18.546Z,100867.09
2023-10-15T02:29:52.476Z,100875.16
2023-10-15T02:32:23.356Z,100869.56
2023-10-15T02:34:53.236Z,100870.72
2023-10-15T02:37:24.947Z,100870.44
2023-10-15T02:39:51.824Z,100869.56
2023-10-15T02:42:32.684Z,100869.81
2023-10-15T02:45:02.775Z,100871.22
2023-10-15T02:47:48.139Z,100878.47
2023-10-15T02:50:17.847Z,100879.88
2023-10-15T02:52:47.713Z,100873.41
2023-10-15T02:55:15.854Z,100877.34
2023-10-15T02:57:43.540Z,100871.72
2023-10-15T03:00:14.402Z,100870.59
2023-10-15T03:02:45.630Z,100866.94
2023-10-15T03:05:19.430Z,100871.69
2023-10-15T03:07:46.265Z,100867.47
2023-10-15T03:10:25.311Z,100876.41
2023-10-15T03:12:51.914Z,100871.09
2023-10-15T03:15:18.960Z,100875.81
2023-10-15T03:17:47.188Z,100873.03
2023-10-15T03:20:17.990Z,100876.69
2023-10-15T03:22:46.141Z,100873.56
2023-10-15T03:25:16.582Z,100884.19
2023-10-15T03:27:48.065Z,100884.72
2023-10-15T03:30:15.661Z,100876.94
2023-10-15T03:32:45.324Z,100890.31
2023-10-15T03:35:19.650Z,100881.94
2023-10-15T03:37:49.274Z,100888.38
2023-10-15T03:40:32.099Z,100891.97
2023-10-15T03:43:07.992Z,100885.81
2023-10-15T03:45:40.559Z,100884.69
2023-10-15T03:48:10.709Z,100881.03
2023-10-15T03:50:45.383Z,100885.22
2023-10-15T03:53:11.845Z,100884.09
2023-10-15T03:55:38.819Z,100883.50
2023-10-15T03:58:14.237Z,100884.63
2023-10-15T04:00:47.733Z,100890.47
2023-10-15T04:03:24.029Z,100889.63
2023-10-15T04:05:54.886Z,100891.59
2023-10-15T04:08:21.335Z,100890.75
2023-10-15T04:10:56.446Z,100882.63
2023-10-15T04:13:23.106Z,100879.00
2023-10-15T04:15:50.508Z,100877.03
2023-10-15T04:18:18.253Z,100874.81
2023-10-15T04:20:44.737Z,100876.72
2023-10-15T04:23:14.628Z,100867.53
2023-10-15T04:25:41.135Z,100866.13
2023-10-15T04:28:15.605Z,100861.63
2023-10-15T04:30:42.437Z,100866.13
2023-10-15T04:33:14.690Z,100868.34
2023-10-15T04:35:44.242Z,100862.75
2023-10-15T04:38:21.795Z,100863.31
2023-10-15T04:41:00.803Z,100855.50
2023-10-15T04:43:28.245Z,100854.38
2023-10-15T04:45:55.698Z,100848.81
2023-10-15T04:48:30.789Z,100851.53
2023-10-15T04:51:05.974Z,100856.00
2023-10-15T04:53:32.739Z,100852.06
2023-10-15T04:56:01.173Z,100861.53
2023-10-15T04:58:30.333Z,100854.53
2023-10-15T05:01:00.175Z,100855.63
2023-10-15T05:03:26.832Z,100858.69
2023-10-15T05:05:56.599Z,100855.91
2023-10-15T05:08:25.872Z,100853.66
2023-10-15T05:10:52.840Z,100861.69
2023-10-15T05:13:20.297Z,100859.50
2023-10-15T05:15:50.808Z,100864.75
2023-10-15T05:18:19.840Z,100857.53
2023-10-15T05:20:51.569Z,100863.66
2023-10-15T05:23:20.145Z,100868.91
2023-10-15T05:25:46.912Z,100874.19
2023-10-15T05:28:15.826Z,100870.81
2023-10-15T05:30:43.200Z,100873.59
2023-10-15T05:33:09.706Z,100876.63
2023-10-15T05:35:38.769Z,100880.78
2023-10-15T05:38:09.347Z,100891.94
2023-10-15T05:40:36.827Z,100884.13
2023-10-15T05:43:03.375Z,100884.69
2023-10-15T05:45:29.809Z,100880.53
2023-10-15T05:47:56.346Z,100889.16
2023-10-15T05:50:22.934Z,100881.66
2023-10-15T05:52:49.411Z,100887.75
2023-10-15T05:55:15.869Z,100883.88
2023-10-15T05:57:42.322Z,100877.16
2023-10-15T06:00:27.388Z,100885.53
2023-10-15T06:02:55.367Z,100880.78
2023-10-15T06:05:22.642Z,100881.91
2023-10-15T06:07:50.256Z,100890.56
2023-10-15T06:10:17.942Z,100880.78
2023-10-15T06:12:44.412Z,100893.34
2023-10-15T06:15:14.335Z,100891.44
2023-10-15T06:17:43.685Z,100890.91
2023-10-15T06:20:13.858Z,100888.13
2023-10-15T06:22:45.136Z,100900.34
2023-10-15T06:25:13.574Z,100894.25
2023-10-15T06:27:41.295Z,100891.47
2023-10-15T06:30:23.974Z,100885.88
2023-10-15T06:32:53.753Z,100891.50
2023-10-15T06:35:23.083Z,100894.28
2023-10-15T06:37:51.587Z,100889.56
2023-10-15T06:40:22.168Z,100891.25
2023-10-15T06:42:52.532Z,100899.91
2023-10-15T06:45:22.907Z,100896.59
2023-10-15T06:47:54.036Z,100896.94
2023-10-15T06:50:24.751Z,100893.84
2023-10-15T06:52:52.118Z,100895.59
2023-10-15T06:55:21.569Z,100898.41
2023-10-15T06:57:48.483Z,100896.78
2023-10-15T07:00:23.003Z,100899.59
2023-10-15T07:02:51.144Z,100907.44
2023-10-15T07:05:20.008Z,100913.31
2023-10-15T07:07:46.939Z,100913.06
2023-10-15T07:10:16.865Z,100918.34
2023-10-15T07:12:47.416Z,100934.81
2023-10-15T07:15:15.526Z,100934.28
2023-10-15T07:17:43.349Z,100929.84
2023-10-15T07:20:15.512Z,100934.88
2023-10-15T07:22:44.395Z,100937.16
2023-10-15T07:25:13.481Z,100946.13
2023-10-15T07:27:45.917Z,100940.59
2023-10-15T07:30:15.798Z,100944.53
2023-10-15T07:32:44.034Z,100935.03
2023-10-15T07:35:15.503Z,100944.81
2023-10-15T07:37:44.349Z,100945.97
2023-10-15T07:40:18.258Z,100939.84
2023-10-15T07:42:53.490Z,100946.56
2023-10-15T07:45:23.910Z,100951.91
2023-10-15T07:47:50.422Z,100956.94
2023-10-15T07:50:21.864Z,100954.16
2023-10-15T07:52:49.282Z,100953.31
2023-10-15T07:55:15.889Z,100946.66
2023-10-15T07:57:42.406Z,100955.31
2023-10-15T08:00:15.855Z,100953.09
2023-10-15T08:02:46.889Z,100960.38
2023-10-15T08:05:14.210Z,100966.00
2023-10-15T08:07:42.958Z,100960.69
2023-10-15T08:10:10.635Z,100959.03
2023-10-15T08:12:38.011Z,100968.78
2023-10-15T08:15:05.111Z,100966.53
2023-10-15T08:17:32.426Z,100977.19
2023-10-15T08:19:59.226Z,100981.44
2023-10-15T08:22:29.404Z,100987.84
2023-10-15T08:24:56.871Z,100978.97
2023-10-15T08:27:23.358Z,100984.56
2023-10-15T08:29:49.816Z,100982.84
2023-10-15T08:32:19.155Z,100985.91
2023-10-15T08:34:46.157Z,100980.88
2023-10-15T08:37:13.300Z,100987.84
2023-10-15T08:39:40.169Z,100981.41
2023-10-15T08:42:21.601Z,100980.06
2023-10-15T08:44:57.772Z,100979.50
2023-10-15T08:47:26.300Z,100982.91
2023-10-15T08:49:54.700Z,100969.22
2023-10-15T08:52:21.544Z,100984.06
2023-10-15T08:54:48.973Z,100977.13
2023-10-15T08:57:15.964Z,100979.09
2023-10-15T08:59:44.636Z,100977.97
2023-10-15T09:02:11.806Z,100970.72
2023-10-15T09:04:38.444Z,100981.38
2023-10-15T09:07:05.468Z,100977.19
2023-10-15T09:09:33.682Z,100976.66
2023-10-15T09:12:03.106Z,100987.81
2023-10-15T09:14:43.651Z,100973.59
2023-10-15T09:17:18.747Z,100983.94
2023-10-15T09:19:49.693Z,100993.72
2023-10-15T09:22:16.268Z,100994.00
2023-10-15T09:24:43.714Z,100996.53
2023-10-15T09:27:10.396Z,101009.09
2023-10-15T09:29:36.893Z,101019.97
2023-10-15T09:32:05.752Z,101013.53
2023-10-15T09:34:34.266Z,101021.69
2023-10-15T09:37:00.913Z,101020.28
2023-10-15T09:39:30.831Z,101024.75
2023-10-15T09:41:57.621Z,101029.53
2023-10-15T09:44:25.329Z,101025.84
2023-10-15T09:46:52.991Z,101034.00
2023-10-15T09:49:21.716Z,101031.22
2023-10-15T09:51:49.861Z,101047.41
2023-10-15T09:54:20.634Z,101039.56
2023-10-15T09:56:48.360Z,101047.41
2023-10-15T09:59:15.561Z,101044.41
2023-10-15T10:01:47.958Z,101050.84
2023-10-15T10:04:36.277Z,101046.97
2023-10-15T10:07:40.054Z,101045.88
2023-10-15T10:10:29.903Z,101060.41
2023-10-15T10:13:23.777Z,101050.09
2023-10-15T10:15:56.248Z,101046.13
2023-10-15T10:18:23.090Z,101050.91
2023-10-15T10:20:49.745Z,101055.38
2023-10-15T10:23:17.172Z,101057.63
2023-10-15T10:25:49.114Z,101051.75
2023-10-15T10:28:19.023Z,101047.00
2023-10-15T10:30:56.861Z,101044.78
2023-10-15T10:33:54.606Z,101045.88
2023-10-15T10:36:28.711Z,101047.56
2023-10-15T10:39:08.682Z,101049.25
2023-10-15T10:41:38.368Z,101048.97
2023-10-15T10:44:19.086Z,101055.69
2023-10-15T10:46:57.656Z,101052.06
2023-10-15T10:49:30.262Z,101042.81
2023-10-15T10:52:13.423Z,101031.06
2023-10-15T10:54:39.898Z,101043.09
2023-10-15T10:57:11.191Z,101048.13
2023-10-15T10:59:39.376Z,101041.69
2023-10-15T11:02:07.465Z,101050.66
2023-10-15T11:04:34.217Z,101042.53
2023-10-15T11:07:01.186Z,101033.81
2023-10-15T11:09:27.644Z,101026.25
2023-10-15T11:11:54.452Z,101035.47
2023-10-15T11:14:24.744Z,101033.50
2023-10-15T11:16:52.995Z,101034.38
2023-10-15T11:19:25.302Z,101031.25
2023-10-15T11:21:53.387Z,101039.66
2023-10-15T11:24:24.481Z,101041.63
2023-10-15T11:26:51.995Z,101035.75
2023-10-15T11:29:20.146Z,101034.06
2023-10-15T11:31:50.406Z,101038.28
2023-10-15T11:34:21.840Z,101038.56
2023-10-15T11:36:51.960Z,101037.44
2023-10-15T11:39:23.836Z,101029.91
2023-10-15T11:41:51.132Z,101035.22
2023-10-15T11:44:28.339Z,101040.28
2023-10-15T11:46:56.131Z,101038.59
2023-10-15T11:49:26.744Z,101027.69
2023-10-15T11:51:57.104Z,101040.81
2023-10-15T11:54:24.957Z,101036.34
2023-10-15T11:56:51.617Z,101030.19
2023-10-15T11:59:18.123Z,101024.28
2023-10-15T12:01:52.156Z,101042.78
2023-10-15T12:04:20.382Z,101032.09
2023-10-15T12:06:47.999Z,101032.41
2023-10-15T12:09:17.825Z,101041.91
2023-10-15T12:11:47.676Z,101031.53
2023-10-15T12:14:14.202Z,101040.75
2023-10-15T12:16:41.530Z,101042.44
2023-10-15T12:19:11.754Z,101037.06
2023-10-15T12:21:38.764Z,101037.94
2023-10-15T12:24:06.478Z,101041.53
2023-10-15T12:26:33.111Z,101034.75
2023-10-15T12:28:59.669Z,101042.31
2023-10-15T12:31:27.698Z,101042.00
2023-10-15T12:33:54.326Z,101039.56
2023-10-15T12:36:22.416Z,101048.31
2023-10-15T12:38:49.814Z,101038.75
2023-10-15T12:41:16.648Z,101033.16
2023-10-15T12:43:43.941Z,101042.94
2023-10-15T12:46:10.649Z,101031.16
2023-10-15T12:48:37.100Z,101042.94
2023-10-15T12:51:03.636Z,101045.19
2023-10-15T12:53:30.125Z,101038.50
2023-10-15T12:55:56.640Z,101039.56
2023-10-15T12:58:23.400Z,101045.78
2023-10-15T13:03:19.631Z,101048.91
2023-10-15T13:05:46.310Z,101052.84
2023-10-15T13:08:12.847Z,101048.38
2023-10-15T13:10:39.434Z,101044.75
2023-10-15T13:13:07.915Z,101048.66
2023-10-15T13:15:34.340Z,101047.50
2023-10-15T13:18:01.239Z,101048.06
2023-10-15T13:20:27.892Z,101042.44
2023-10-15T13:22:55.100Z,101048.31
2023-10-15T13:25:23.434Z,101045.81
2023-10-15T13:27:49.963Z,101045.25
2023-10-15T13:30:17.367Z,101037.09
2023-10-15T13:32:45.944Z,101037.69
2023-10-15T13:35:12.930Z,101045.50
2023-10-15T13:37:40.384Z,101036.16
2023-10-15T13:40:10.435Z,101027.72
2023-10-15T13:42:38.297Z,101039.72
2023-10-15T13:45:05.582Z,101037.97
2023-10-15T13:47:37.730Z,101046.06
2023-10-15T13:50:08.601Z,101033.44
2023-10-15T13:52:36.655Z,101030.59
2023-10-15T13:55:05.505Z,101047.13
2023-10-15T13:57:32.665Z,101048.78
2023-10-15T13:59:59.559Z,101058.91
2023-10-15T14:02:26.108Z,101057.81
2023-10-15T14:04:53.156Z,101053.06
2023-10-15T14:07:20.124Z,101060.13
2023-10-15T14:09:46.563Z,101066.88
2023-10-15T14:12:13.052Z,101061.59
2023-10-15T14:14:39.530Z,101067.50
2023-10-15T14:17:06.106Z,101067.56
2023-10-15T14:19:32.639Z,101065.31
2023-10-15T14:21:59.117Z,101068.97
2023-10-15T14:24:25.787Z,101074.28
2023-10-15T14:26:52.925Z,101081.03
2023-10-15T14:29:20.195Z,101086.06
2023-10-15T14:31:46.922Z,101090.84
2023-10-15T14:34:13.620Z,101099.53
2023-10-15T14:36:43.008Z,101096.78
2023-10-15T14:39:09.754Z,101116.94
2023-10-15T14:41:37.234Z,101102.97
2023-10-15T14:44:04.121Z,101110.22
2023-10-15T14:46:30.845Z,101107.72
2023-10-15T14:48:57.419Z,101114.47
2023-10-15T14:51:23.874Z,101111.38
2023-10-15T14:53:50.331Z,101106.34
2023-10-15T14:56:16.813Z,101108.88
2023-10-15T14:58:43.363Z,101116.72
2023-10-15T15:01:09.913Z,101121.22
2023-10-15T15:03:37.400Z,101131.03
2023-10-15T15:06:07.309Z,101127.38
2023-10-15T15:08:33.832Z,101127.66
2023-10-15T15:11:00.355Z,101133.25
2023-10-15T15:13:26.809Z,101138.84
2023-10-15T15:15:54.443Z,101132.41
2023-10-15T15:18:20.946Z,101140.56
2023-10-15T15:21:07.212Z,101132.72
2023-10-15T15:23:35.033Z,101145.56
2023-10-15T15:26:06.514Z,101143.06
2023-10-15T15:28:34.034Z,101149.75
2023-10-15T15:31:01.921Z,101147.25
2023-10-15T15:33:28.561Z,101152.56
2023-10-15T15:35:56.811Z,101149.75
2023-10-15T15:38:23.323Z,101160.41
2023-10-15T15:41:02.893Z,101157.03
2023-10-15T15:43:29.345Z,101150.34
2023-10-15T15:45:55.827Z,101146.97
2023-10-15T15:48:22.336Z,101157.84
2023-10-15T15:50:48.875Z,101160.13
2023-10-15T15:53:15.418Z,101160.66
2023-10-15T15:55:42.539Z,101165.09
2023-10-15T15:58:10.384Z,101175.44
2023-10-15T16:00:37.385Z,101170.69
2023-10-15T16:03:06.866Z,101178.25
2023-10-15T16:05:36.932Z,101179.91
2023-10-15T16:08:04.817Z,101175.41
2023-10-15T16:10:31.400Z,101175.09
2023-10-15T16:12:59.471Z,101186.81
2023-10-15T16:15:27.324Z,101191.31
2023-10-15T16:17:54.876Z,101186.53
2023-10-15T16:20:21.797Z,101187.66
2023-10-15T16:22:50.721Z,101189.03
2023-10-15T16:25:18.501Z,101199.06
2023-10-15T16:27:45.206Z,101207.72
2023-10-15T16:30:12.292Z,101208.28
2023-10-15T16:32:40.595Z,101213.56
2023-10-15T16:35:17.524Z,101214.97
2023-10-15T16:37:44.721Z,101223.28
2023-10-15T16:40:14.010Z,101223.50
2023-10-15T16:42:40.531Z,101234.72
2023-10-15T16:45:10.190Z,101237.22
2023-10-15T16:47:39.664Z,101238.88
2023-10-15T16:50:07.078Z,101247.25
2023-10-15T16:52:33.627Z,101239.09
2023-10-15T16:55:00.142Z,101246.63
2023-10-15T16:57:26.929Z,101244.63
2023-10-15T17:00:00.530Z,101247.69
2023-10-15T17:02:32.027Z,101253.53
2023-10-15T17:04:58.801Z,101251.03
2023-10-15T17:07:26.070Z,101254.09
2023-10-15T17:09:55.835Z,101261.09
2023-10-15T17:12:22.594Z,101258.00
2023-10-15T17:14:49.385Z,101264.13
2023-10-15T17:17:18.130Z,101260.25
2023-10-15T17:19:44.923Z,101249.31
2023-10-15T17:22:11.472Z,101268.31
2023-10-15T17:24:37.909Z,101263.84
2023-10-15T17:27:04.395Z,101258.25
2023-10-15T17:29:30.863Z,101271.91
2023-10-15T17:31:58.603Z,101280.84
2023-10-15T17:34:27.616Z,101283.88
2023-10-15T17:37:00.631Z,101286.06
2023-10-15T17:39:35.123Z,101282.94
2023-10-15T17:42:04.082Z,101276.78
2023-10-15T17:44:30.577Z,101296.31
2023-10-15T17:46:57.107Z,101292.09
2023-10-15T17:49:23.656Z,101289.84
2023-10-15T17:51:51.559Z,101294.06
2023-10-15T17:54:19.437Z,101282.28
2023-10-15T17:56:46.101Z,101294.06
2023-10-15T17:59:12.550Z,101294.59
2023-10-15T18:01:38.993Z,101294.84
2023-10-15T18:04:05.717Z,101300.09
2023-10-15T18:06:32.496Z,101293.94
2023-10-15T18:08:58.997Z,101313.47
2023-10-15T18:11:27.726Z,101307.91
2023-10-15T18:13:54.392Z,101311.47
2023-10-15T18:16:21.663Z,101315.91
2023-10-15T18:18:48.459Z,101320.31
2023-10-15T18:21:15.149Z,101323.03
2023-10-15T18:23:41.803Z,101314.44
2023-10-15T18:26:08.273Z,101319.94
2023-10-15T18:28:34.735Z,101312.94
2023-10-15T18:31:05.809Z,101312.09
2023-10-15T18:33:32.275Z,101313.72
2023-10-15T18:35:58.915Z,101317.63
2023-10-15T18:38:25.643Z,101322.59
2023-10-15T18:40:52.298Z,101324.25
2023-10-15T18:43:18.858Z,101332.56
2023-10-15T18:45:49.668Z,101328.94
2023-10-15T18:48:16.276Z,101336.78
2023-10-15T18:50:43.013Z,101334.16
2023-10-15T18:53:10.213Z,101343.06
2023-10-15T18:55:36.742Z,101344.75
2023-10-15T18:58:03.258Z,101350.06
2023-10-15T19:00:30.074Z,101350.91
2023-10-15T19:02:56.729Z,101354.22
2023-10-15T19:05:23.952Z,101362.53
2023-10-15T19:07:50.475Z,101358.63
2023-10-15T19:10:16.949Z,101368.69
2023-10-15T19:12:47.609Z,101361.94
2023-10-15T19:15:15.236Z,101364.47
2023-10-15T19:17:42.239Z,101372.31
2023-10-15T19:20:15.888Z,101373.13
2023-10-15T19:22:42.416Z,101383.91
2023-10-15T19:25:10.887Z,101385.03
2023-10-15T19:27:37.674Z,101389.78
2023-10-15T19:30:04.463Z,101394.25
2023-10-15T19:32:33.718Z,101391.72
2023-10-15T19:35:00.271Z,101391.97
2023-10-15T19:37:28.341Z,101390.53
2023-10-15T19:39:54.857Z,101392.50
2023-10-15T19:42:21.348Z,101388.25
2023-10-15T19:44:48.299Z,101399.19
2023-10-15T19:47:14.868Z,101391.88
2023-10-15T19:49:41.370Z,101404.75
2023-10-15T19:52:07.827Z,101396.31
2023-10-15T19:54:34.396Z,101396.81
2023-10-15T19:57:03.664Z,101403.50
2023-10-15T19:59:30.770Z,101407.38
2023-10-15T20:01:57.363Z,101412.13
2023-10-15T20:04:23.981Z,101410.41
2023-10-15T20:06:50.543Z,101413.47
2023-10-15T20:09:18.803Z,101411.84
2023-10-15T20:11:45.320Z,101411.53
2023-10-15T20:14:11.782Z,101422.69
2023-10-15T20:16:38.271Z,101426.81
2023-10-15T20:19:06.607Z,101432.41
2023-10-15T20:21:33.215Z,101429.03
2023-10-15T20:23:59.694Z,101437.97
2023-10-15T20:26:26.560Z,101437.91
2023-10-15T20:28:53.087Z,101443.47
2023-10-15T20:31:19.557Z,101438.50
2023-10-15T20:33:46.144Z,101440.38
2023-10-15T20:36:12.763Z,101437.06
2023-10-15T20:38:39.345Z,101443.97
2023-10-15T20:41:05.889Z,101438.91
2023-10-15T20:43:32.334Z,101442.81
2023-10-15T20:45:58.925Z,101451.41
2023-10-15T20:48:28.769Z,101455.66
2023-10-15T20:50:55.726Z,101454.81
2023-10-15T20:53:22.167Z,101460.63
2023-10-15T20:55:48.630Z,101451.09
2023-10-15T20:58:15.138Z,101461.66
2023-10-15T21:00:41.703Z,101461.66
2023-10-15T21:03:08.346Z,101456.56
2023-10-15T21:05:34.831Z,101460.94
2023-10-15T21:08:01.320Z,101459.03
2023-10-15T21:10:28.127Z,101454.31
2023-10-15T21:12:54.583Z,101466.44
2023-10-15T21:15:21.255Z,101471.25
2023-10-15T21:17:48.018Z,101471.13
2023-10-15T21:20:16.539Z,101465.22
2023-10-15T21:22:43.394Z,101464.41
2023-10-15T21:25:11.066Z,101472.41
2023-10-15T21:27:38.579Z,101466.84
2023-10-15T21:30:07.945Z,101473.88
2023-10-15T21:32:34.808Z,101466.25
2023-10-15T21:35:05.822Z,101469.03
2023-10-15T21:37:32.254Z,101474.75
2023-10-15T21:39:59.387Z,101472.47
2023-10-15T21:42:26.069Z,101475.63
2023-10-15T21:44:52.586Z,101477.47
2023-10-15T21:47:19.297Z,101476.03
2023-10-15T21:49:45.772Z,101476.88
2023-10-15T21:52:12.875Z,101472.63
2023-10-15T21:54:39.481Z,101474.81
2023-10-15T21:57:06.024Z,101485.47
2023-10-15T21:59:32.542Z,101484.00
2023-10-15T22:01:59.048Z,101492.03
2023-10-15T22:04:26.059Z,101482.00
2023-10-15T22:06:52.775Z,101490.25
2023-10-15T22:09:19.295Z,101484.41
2023-10-15T22:11:45.791Z,101487.47
2023-10-15T22:14:12.246Z,101482.72
2023-10-15T22:16:39.827Z,101481.28
2023-10-15T22:19:09.063Z,101487.13
2023-10-15T22:21:36.946Z,101480.59
2023-10-15T22:24:07.058Z,101486.41
2023-10-15T22:26:35.211Z,101484.22
2023-10-15T22:29:07.486Z,101489.19
2023-10-15T22:31:34.255Z,101486.41
2023-10-15T22:34:01.068Z,101482.78
2023-10-15T22:36:27.629Z,101474.94
2023-10-15T22:38:54.361Z,101479.28
2023-10-15T22:41:26.368Z,101489.59
2023-10-15T22:43:52.951Z,101486.47
2023-10-15T22:46:19.459Z,101484.84
2023-10-15T22:48:48.904Z,101488.16
2023-10-15T22:51:17.102Z,101487.53
2023-10-15T22:53:43.747Z,101486.34
2023-10-15T22:56:10.314Z,101493.00
2023-10-15T22:58:36.983Z,101488.03
2023-10-15T23:01:04.687Z,101484.06
2023-10-15T23:03:31.546Z,101487.59
2023-10-15T23:05:58.096Z,101486.97
2023-10-15T23:08:24.558Z,101490.63
2023-10-15T23:10:51.413Z,101497.16
2023-10-15T23:13:18.867Z,101499.38
2023-10-15T23:15:45.844Z,101494.63
2023-10-15T23:18:17.801Z,101497.03
2023-10-15T23:20:44.805Z,101508.19
2023-10-15T23:23:22.447Z,101495.97
2023-10-15T23:25:53.017Z,101498.75
2023-10-15T23:28:26.470Z,101500.69
2023-10-15T23:30:57.251Z,101499.75
2023-10-15T23:33:30.109Z,101493.31
2023-10-15T23:36:00.830Z,101501.91
2023-10-15T23:38:27.430Z,101500.47
2023-10-15T23:40:54.293Z,101497.69
2023-10-15T23:43:22.870Z,101500.47
2023-10-15T23:45:55.883Z,101494.63
2023-10-15T23:48:22.537Z,101494.91
2023-10-15T23:50:52.312Z,101501.56
2023-10-15T23:53:30.794Z,101495.03
2023-10-15T23:56:06.757Z,101493.09
2023-10-15T23:58:33.434Z,101496.94
